Stations météo

Publicité
Grenoble le Versoud, France (7487): Température de l'air & dewpoint: 13.09.2018 16:00:00 - 19.09.2018 16:00:00 (CEST)Grenoble le Versoud, France (7487): Vitesse du vent & gusts: 13.09.2018 16:00:00 - 19.09.2018 16:00:00 (CEST)Grenoble le Versoud, France (7487): Direction du vent: 13.09.2018 16:00:00 - 19.09.2018 16:00:00 (CEST)Grenoble le Versoud, France (7487): reduced air pressure: 13.09.2018 16:00:00 - 19.09.2018 16:00:00 (CEST)Grenoble le Versoud, France (7487): Quantités de précipitations: 13.09.2018 16:00:00 - 19.09.2018 16:00:00 (CEST)
Date & Time tt [°C] td [°C] ff [km/h] ff [knt] fx [km/h] fx [knt] dd ppp [hPa] rr [mm]
19.09.2018 16:00:00 30,0 15,3 5 3 15 8 W 1017,1 0,0
19.09.2018 15:00:00 29,4 14,4 8 4 13 7 NNE 1017,7 0,0
19.09.2018 14:00:00 28,4 14,6 4 2 13 7 N 1018,5 -
19.09.2018 13:00:00 27,3 15,0 4 2 9 5 SE 1019,2 0,0
19.09.2018 12:00:00 25,3 15,0 2 1 8 4 WSW 1019,8 0,0
19.09.2018 11:00:00 23,7 15,7 2 1 5 3 SSW 1020,6 0,0
19.09.2018 10:00:00 21,8 16,5 4 2 9 5 ENE 1021,0 0,0
19.09.2018 09:00:00 17,8 16,1 0 0 5 3 N 1020,8 0,0
19.09.2018 08:00:00 15,7 13,9 4 2 8 4 ENE 1020,8 -
19.09.2018 07:00:00 15,2 14,1 4 2 5 3 WNW 1020,2 0,0
19.09.2018 06:00:00 15,7 14,7 0 0 8 4 N 1020,0 0,0
19.09.2018 05:00:00 16,1 15,1 2 1 5 3 NE 1019,7 -
19.09.2018 04:00:00 16,5 15,0 2 1 5 3 NE 1019,7 0,0
19.09.2018 03:00:00 16,9 15,1 0 0 8 4 N 1019,4 0,0
19.09.2018 02:00:00 17,5 15,3 2 1 5 3 N 1019,5 -
19.09.2018 01:00:00 18,4 16,2 0 0 4 2 N 1019,1 0,0
19.09.2018 00:00:00 19,1 16,5 2 1 5 3 NNE 1018,7 0,0
18.09.2018 23:00:00 20,1 16,3 0 0 5 3 N 1018,2 0,0
18.09.2018 22:00:00 20,9 16,3 2 1 5 3 WNW 1017,8 0,0
18.09.2018 21:00:00 22,7 15,8 0 0 15 8 N 1016,9 0,0
18.09.2018 20:00:00 26,3 15,4 8 4 21 11 SSW 1015,5 -
18.09.2018 19:00:00 28,0 15,6 9 5 21 11 S 1014,5 0,0
18.09.2018 18:00:00 29,4 16,2 8 4 16 9 SSW 1014,1 0,0
18.09.2018 17:00:00 29,7 15,0 5 3 16 9 SW 1014,2 0,0
18.09.2018 16:00:00 29,2 15,7 9 5 21 11 SW 1014,6 0,0
18.09.2018 15:00:00 29,1 15,2 5 3 18 10 SSE 1015,0 0,0
18.09.2018 14:00:00 28,3 15,2 4 2 9 5 WSW 1015,7 -
18.09.2018 13:00:00 26,6 15,0 4 2 11 6 W 1017,0 0,0
18.09.2018 12:00:00 25,7 16,3 0 0 8 4 N 1017,8 0,0
18.09.2018 11:00:00 22,7 15,3 2 1 8 4 SW 1018,6 0,0
18.09.2018 10:00:00 20,8 15,3 0 0 4 2 N 1019,0 0,0
18.09.2018 09:00:00 16,9 15,9 0 0 5 3 N 1019,5 0,0
18.09.2018 08:00:00 14,7 14,1 2 1 4 2 WSW 1019,4 -
18.09.2018 07:00:00 14,2 13,1 0 0 4 2 N 1018,9 0,2
18.09.2018 06:00:00 15,0 14,2 0 0 4 2 N 1018,7 0,0
18.09.2018 05:00:00 15,2 14,1 0 0 4 2 N 1018,6 0,0
18.09.2018 04:00:00 16,0 14,7 0 0 4 2 N 1018,1 0,0
18.09.2018 03:00:00 16,4 14,4 0 0 4 2 N 1017,8 0,0
18.09.2018 02:00:00 16,9 14,9 4 2 5 3 N 1017,8 -
18.09.2018 01:00:00 17,7 15,1 0 0 5 3 N 1017,8 0,0
18.09.2018 00:00:00 18,4 14,9 0 0 5 3 N 1017,6 0,0
17.09.2018 23:00:00 20,0 15,4 0 0 5 3 N 1017,3 0,0
17.09.2018 22:00:00 21,8 15,6 0 0 8 4 N 1016,8 0,0
17.09.2018 21:00:00 23,5 15,0 2 1 16 9 NNW 1016,1 0,0
17.09.2018 20:00:00 26,4 15,1 11 6 26 14 NNW 1015,2 -
17.09.2018 19:00:00 28,9 14,7 11 6 24 13 NNE 1014,5 0,0
17.09.2018 18:00:00 30,2 15,1 9 5 18 10 SSW 1014,1 0,0
17.09.2018 17:00:00 30,4 15,3 9 5 16 9 SW 1014,5 0,0
17.09.2018 16:00:00 30,1 14,6 4 2 13 7 SSW 1015,2 0,0
17.09.2018 15:00:00 28,5 15,8 8 4 18 10 WSW 1016,5 0,0
17.09.2018 14:00:00 28,6 15,5 8 4 15 8 SW 1017,4 -
17.09.2018 13:00:00 27,0 15,1 4 2 15 8 N 1018,2 0,0
17.09.2018 12:00:00 24,7 14,8 2 1 8 4 W 1019,7 0,0
17.09.2018 11:00:00 22,8 15,4 2 1 5 3 WSW 1020,5 0,0
17.09.2018 10:00:00 20,7 15,3 2 1 5 3 N 1020,9 0,0
17.09.2018 09:00:00 17,3 16,0 2 1 5 3 NE 1021,3 0,0
17.09.2018 08:00:00 14,9 14,1 0 0 4 2 N 1021,5 -
17.09.2018 07:00:00 15,3 14,5 0 0 4 2 N 1021,1 0,0
17.09.2018 06:00:00 15,7 14,6 0 0 4 2 N 1020,9 0,0
17.09.2018 05:00:00 16,6 14,8 0 0 4 2 N 1020,7 0,0
17.09.2018 04:00:00 17,7 15,7 4 2 5 3 NE 1020,6 0,0
17.09.2018 03:00:00 17,9 15,9 0 0 5 3 N 1020,6 0,0
17.09.2018 02:00:00 18,4 15,8 0 0 5 3 N 1020,6 -
17.09.2018 01:00:00 18,6 15,8 2 1 5 3 N 1020,8 0,0
17.09.2018 00:00:00 19,5 15,8 2 1 5 3 SE 1020,8 0,0
16.09.2018 23:00:00 19,9 15,7 0 0 4 2 N 1021,0 0,0
16.09.2018 22:00:00 20,7 16,1 0 0 4 2 N 1020,6 0,0
16.09.2018 21:00:00 21,6 16,8 4 2 9 5 NNE 1020,0 0,0
16.09.2018 20:00:00 23,2 16,0 4 2 8 4 W 1019,4 -
16.09.2018 19:00:00 24,8 16,8 4 2 5 3 SW 1018,7 0,0
16.09.2018 18:00:00 26,6 15,9 4 2 8 4 WSW 1018,2 0,0
16.09.2018 17:00:00 27,5 14,2 0 0 9 5 N 1018,1 0,0
16.09.2018 16:00:00 27,9 14,2 4 2 11 6 WNW 1018,4 0,0
16.09.2018 15:00:00 26,0 14,1 8 4 11 6 WSW 1019,0 0,0
16.09.2018 14:00:00 26,1 13,6 5 3 13 7 NNW 1019,5 -
16.09.2018 13:00:00 24,7 12,9 4 2 11 6 SSW 1020,6 0,0
16.09.2018 12:00:00 22,5 12,4 4 2 9 5 NNE 1021,4 0,0
16.09.2018 11:00:00 20,8 12,7 2 1 8 4 NE 1022,1 0,0
16.09.2018 10:00:00 18,2 13,3 5 3 8 4 NE 1022,3 0,0
16.09.2018 09:00:00 14,6 13,0 0 0 4 2 N 1022,7 0,0
16.09.2018 08:00:00 12,7 11,6 0 0 2 1 N 1022,5 -
16.09.2018 07:00:00 12,4 11,0 2 1 8 4 NE 1021,9 0,0
16.09.2018 06:00:00 13,0 11,7 0 0 4 2 N 1021,6 0,0
16.09.2018 05:00:00 13,3 11,5 0 0 5 3 N 1021,4 0,0
16.09.2018 04:00:00 14,2 12,4 0 0 5 3 N 1021,9 0,0
16.09.2018 03:00:00 14,6 12,5 0 0 4 2 N 1022,2 0,0
16.09.2018 02:00:00 15,2 12,5 0 0 4 2 N 1022,3 -
16.09.2018 01:00:00 15,7 11,9 0 0 4 2 N 1021,9 0,0
16.09.2018 00:00:00 16,4 12,6 0 0 8 4 N 1021,9 0,0
15.09.2018 23:00:00 18,1 13,0 4 2 8 4 W 1021,6 0,0
15.09.2018 22:00:00 19,8 13,0 4 2 9 5 ENE 1021,1 0,0
15.09.2018 21:00:00 20,7 13,2 0 0 9 5 N 1020,5 0,0
15.09.2018 20:00:00 23,9 12,2 4 2 22 12 SSE 1019,8 -
15.09.2018 19:00:00 25,7 12,5 9 5 18 10 SSW 1019,0 0,0
15.09.2018 18:00:00 27,0 13,7 9 5 16 9 SW 1018,5 0,0
15.09.2018 17:00:00 27,1 13,1 4 2 15 8 S 1018,5 0,0
15.09.2018 16:00:00 26,7 13,4 5 3 13 7 SW 1018,8 0,0
15.09.2018 15:00:00 25,7 13,9 8 4 16 9 SSE 1019,5 0,0
15.09.2018 14:00:00 24,5 13,4 5 3 15 8 WSW 1020,3 -
15.09.2018 13:00:00 23,2 12,8 4 2 11 6 WSW 1021,1 0,0
15.09.2018 12:00:00 22,5 13,0 2 1 9 5 S 1021,8 0,0
15.09.2018 11:00:00 18,9 12,9 2 1 8 4 SW 1022,4 -
15.09.2018 10:00:00 17,7 12,8 4 2 8 4 W 1022,5 0,0
15.09.2018 09:00:00 16,5 12,5 4 2 8 4 WSW 1022,3 0,0
15.09.2018 08:00:00 14,6 12,1 0 0 5 3 N 1021,8 -
15.09.2018 07:00:00 15,6 12,7 0 0 8 4 N 1021,1 0,0
15.09.2018 06:00:00 16,8 13,5 2 1 5 3 WSW 1020,6 0,0
15.09.2018 05:00:00 17,9 15,0 0 0 4 2 N 1020,3 -
15.09.2018 04:00:00 17,6 15,4 0 0 4 2 N 1020,1 0,0
15.09.2018 03:00:00 17,5 15,5 0 0 2 1 N 1020,1 0,0
15.09.2018 02:00:00 17,3 15,1 2 1 5 3 N 1019,9 -
15.09.2018 01:00:00 18,3 15,5 0 0 9 5 N 1019,7 0,0
15.09.2018 00:00:00 19,3 15,2 0 0 4 2 N 1019,3 0,0
14.09.2018 23:00:00 20,9 14,8 0 0 5 3 N 1019,1 0,0
14.09.2018 22:00:00 22,3 14,2 0 0 22 12 N 1018,8 0,0
14.09.2018 21:00:00 22,7 13,7 11 6 21 11 NNW 1018,4 0,0
14.09.2018 20:00:00 22,5 15,6 4 2 15 8 NW 1018,0 -
14.09.2018 19:00:00 23,6 15,1 8 4 18 10 S 1017,4 0,0
14.09.2018 18:00:00 24,4 15,6 9 5 18 10 S 1017,1 0,0
14.09.2018 17:00:00 24,1 15,6 13 7 22 12 SW 1016,9 0,0
14.09.2018 16:00:00 24,0 15,8 18 10 29 16 SW 1017,0 0,0
14.09.2018 15:00:00 25,1 16,5 18 10 29 16 SW 1017,0 0,0
14.09.2018 14:00:00 24,3 16,6 18 10 29 16 SW 1017,4 -
14.09.2018 13:00:00 23,1 15,9 13 7 22 12 WSW 1017,6 0,0
14.09.2018 12:00:00 22,6 17,1 13 7 18 10 SW 1018,1 0,0
14.09.2018 11:00:00 21,4 16,6 8 4 15 8 WSW 1018,2 0,0
14.09.2018 10:00:00 20,5 16,7 9 5 15 8 N 1018,0 0,0
14.09.2018 09:00:00 19,5 17,1 2 1 5 3 N 1017,8 0,0
14.09.2018 08:00:00 17,8 16,0 2 1 4 2 WSW 1017,7 -
14.09.2018 07:00:00 18,7 15,6 0 0 13 7 N 1017,3 0,0
14.09.2018 06:00:00 19,5 16,3 8 4 13 7 N 1017,0 0,0
14.09.2018 05:00:00 19,3 16,1 0 0 5 3 N 1016,9 -
14.09.2018 04:00:00 19,6 16,4 4 2 5 3 NNW 1017,0 0,0
14.09.2018 03:00:00 20,0 15,8 2 1 8 4 NW 1016,9 0,0
14.09.2018 02:00:00 19,1 16,0 4 2 9 5 NNW 1016,6 -
14.09.2018 01:00:00 18,9 15,4 0 0 5 3 N 1016,3 0,0
14.09.2018 00:00:00 19,6 15,3 4 2 8 4 SSW 1015,9 0,0
13.09.2018 23:00:00 19,7 15,3 0 0 5 3 N 1015,5 0,0
13.09.2018 22:00:00 21,1 15,2 4 2 8 4 S 1015,2 0,0
13.09.2018 21:00:00 23,6 14,9 4 2 13 7 E 1014,5 0,0
13.09.2018 20:00:00 25,1 14,5 9 5 21 11 NNE 1013,9 -
13.09.2018 19:00:00 28,4 13,5 9 5 24 13 N 1013,5 0,0
13.09.2018 18:00:00 29,4 14,4 9 5 18 10 NNW 1013,3 0,0
13.09.2018 17:00:00 29,1 14,5 11 6 18 10 N 1013,5 0,0
13.09.2018 16:00:00 30,9 16,1 2 1 13 7 S 1013,7 0,0

tt = Température de l'air
td = dewpoint
ff = Vitesse du vent
fx = gusts
dd = Direction du vent
ppp = reduced air pressure
rr = Quantités de précipitations

stations d'obs. à proximité